createdAt,value
2023-03-22T00:00:17.592Z,99452.16
2023-03-22T00:02:45.915Z,99442.56
2023-03-22T00:05:13.964Z,99432.53
2023-03-22T00:07:43.643Z,99427.41
2023-03-22T00:10:12.472Z,99432.72
2023-03-22T00:12:40.622Z,99418.44
2023-03-22T00:15:11.240Z,99414.97
2023-03-22T00:17:56.089Z,99407.81
2023-03-22T00:20:24.778Z,99398.22
2023-03-22T00:22:52.794Z,99408.00
2023-03-22T00:25:20.816Z,99402.91
2023-03-22T00:27:48.888Z,99397.59
2023-03-22T00:30:17.342Z,99393.91
2023-03-22T00:32:46.959Z,99391.69
2023-03-22T00:35:19.374Z,99390.06
2023-03-22T00:37:47.454Z,99389.22
2023-03-22T00:40:25.687Z,99387.22
2023-03-22T00:42:55.910Z,99381.91
2023-03-22T00:45:23.952Z,99376.59
2023-03-22T00:47:53.526Z,99373.09
2023-03-22T00:50:21.718Z,99353.50
2023-03-22T00:52:49.791Z,99364.94
2023-03-22T00:55:18.128Z,99360.84
2023-03-22T00:57:46.191Z,99347.38
2023-03-22T01:00:16.135Z,99349.00
2023-03-22T01:02:45.093Z,99348.59
2023-03-22T01:05:15.971Z,99338.59
2023-03-22T01:07:44.872Z,99340.25
2023-03-22T01:10:13.963Z,99339.22
2023-03-22T01:12:42.170Z,99329.22
2023-03-22T01:15:11.866Z,99320.25
2023-03-22T01:17:39.885Z,99326.38
2023-03-22T01:20:09.890Z,99317.78
2023-03-22T01:22:39.355Z,99312.66
2023-03-22T01:25:09.183Z,99317.97
2023-03-22T01:27:37.506Z,99313.88
2023-03-22T01:30:06.615Z,99309.59
2023-03-22T01:32:34.854Z,99309.38
2023-03-22T01:35:03.247Z,99309.19
2023-03-22T01:37:32.668Z,99300.41
2023-03-22T01:40:03.409Z,99304.91
2023-03-22T01:42:31.711Z,99302.88
2023-03-22T01:45:34.733Z,99303.28
2023-03-22T01:48:11.106Z,99301.66
2023-03-22T01:50:42.652Z,99293.09
2023-03-22T01:53:15.417Z,99298.81
2023-03-22T01:55:46.478Z,99293.13
2023-03-22T01:58:37.078Z,99291.28
2023-03-22T02:01:07.084Z,99285.53
2023-03-22T02:03:42.382Z,99275.31
2023-03-22T02:06:10.638Z,99263.69
2023-03-22T02:08:40.844Z,99273.91
2023-03-22T02:11:16.633Z,99271.66
2023-03-22T02:14:27.820Z,99262.44
2023-03-22T02:17:12.142Z,99253.25
2023-03-22T02:20:11.158Z,99255.53
2023-03-22T02:23:09.763Z,99256.75
2023-03-22T02:26:14.069Z,99251.19
2023-03-22T02:28:51.372Z,99242.81
2023-03-22T02:31:48.116Z,99236.50
2023-03-22T02:34:41.771Z,99242.44
2023-03-22T02:37:54.448Z,99246.31
2023-03-22T02:40:33.245Z,99239.16
2023-03-22T02:43:11.047Z,99233.41
2023-03-22T02:45:48.332Z,99236.06
2023-03-22T02:48:21.118Z,99236.47
2023-03-22T02:50:58.175Z,99228.72
2023-03-22T02:53:32.746Z,99234.63
2023-03-22T02:56:05.092Z,99230.16
2023-03-22T02:58:39.630Z,99224.63
2023-03-22T03:01:12.370Z,99221.16
2023-03-22T03:03:41.066Z,99217.47
2023-03-22T03:06:15.121Z,99225.03
2023-03-22T03:08:46.917Z,99228.50
2023-03-22T03:11:16.356Z,99228.50
2023-03-22T03:13:44.542Z,99224.84
2023-03-22T03:16:17.756Z,99216.41
2023-03-22T03:18:54.676Z,99221.53
2023-03-22T03:21:32.839Z,99218.66
2023-03-22T03:24:16.290Z,99221.31
2023-03-22T03:26:54.046Z,99216.22
2023-03-22T03:29:30.017Z,99212.31
2023-03-22T03:32:07.570Z,99205.16
2023-03-22T03:34:42.197Z,99198.22
2023-03-22T03:37:16.025Z,99193.72
2023-03-22T03:39:52.690Z,99178.78
2023-03-22T03:42:26.456Z,99186.75
2023-03-22T03:44:55.115Z,99182.47
2023-03-22T03:47:30.683Z,99175.72
2023-03-22T03:49:59.276Z,99172.25
2023-03-22T03:52:31.604Z,99176.13
2023-03-22T03:54:59.962Z,99173.47
2023-03-22T03:57:31.043Z,99171.63
2023-03-22T03:59:59.363Z,99165.28
2023-03-22T04:02:27.485Z,99160.38
2023-03-22T04:04:55.537Z,99159.97
2023-03-22T04:07:25.014Z,99157.88
2023-03-22T04:09:53.019Z,99154.41
2023-03-22T04:12:21.690Z,99160.13
2023-03-22T04:14:51.158Z,99151.13
2023-03-22T04:17:19.235Z,99154.59
2023-03-22T04:19:47.670Z,99144.16
2023-03-22T04:22:18.574Z,99133.13
2023-03-22T04:24:50.324Z,99123.31
2023-03-22T04:27:19.228Z,99134.75
2023-03-22T04:29:48.542Z,99126.59
2023-03-22T04:32:22.975Z,99130.47
2023-03-22T04:35:12.169Z,99123.31
2023-03-22T04:37:41.785Z,99123.69
2023-03-22T04:40:10.483Z,99122.69
2023-03-22T04:42:39.298Z,99124.28
2023-03-22T04:45:09.161Z,99116.31
2023-03-22T04:47:38.782Z,99116.91
2023-03-22T04:50:09.479Z,99119.97
2023-03-22T04:52:37.968Z,99116.06
2023-03-22T04:55:07.120Z,99110.97
2023-03-22T04:57:35.792Z,99113.19
2023-03-22T05:00:08.502Z,99110.75
2023-03-22T05:02:41.141Z,99114.03
2023-03-22T05:05:11.322Z,99105.84
2023-03-22T05:07:39.975Z,99097.41
2023-03-22T05:10:09.313Z,99091.06
2023-03-22T05:12:37.813Z,99094.72
2023-03-22T05:15:10.389Z,99090.81
2023-03-22T05:17:38.601Z,99087.94
2023-03-22T05:20:10.394Z,99090.59
2023-03-22T05:22:40.972Z,99086.69
2023-03-22T05:25:11.641Z,99081.56
2023-03-22T05:27:39.738Z,99086.88
2023-03-22T05:30:13.493Z,99081.75
2023-03-22T05:32:43.915Z,99081.34
2023-03-22T05:35:12.514Z,99074.78
2023-03-22T05:37:42.514Z,99077.22
2023-03-22T05:40:11.330Z,99084.97
2023-03-22T05:42:40.362Z,99082.09
2023-03-22T05:45:09.883Z,99084.53
2023-03-22T05:47:39.537Z,99074.50
2023-03-22T05:50:09.351Z,99069.19
2023-03-22T05:52:38.012Z,99074.28
2023-03-22T05:55:08.704Z,99079.41
2023-03-22T05:57:36.799Z,99074.06
2023-03-22T06:00:10.446Z,99066.47
2023-03-22T06:02:38.868Z,99067.50
2023-03-22T06:05:09.387Z,99065.00
2023-03-22T06:07:37.478Z,99067.63
2023-03-22T06:10:09.403Z,99058.16
2023-03-22T06:12:37.758Z,99065.88
2023-03-22T06:15:07.586Z,99070.56
2023-03-22T06:17:36.288Z,99063.16
2023-03-22T06:20:09.394Z,99055.31
2023-03-22T06:22:37.529Z,99060.81
2023-03-22T06:25:08.805Z,99059.13
2023-03-22T06:27:37.258Z,99054.34
2023-03-22T06:30:06.389Z,99058.38
2023-03-22T06:32:34.427Z,99055.19
2023-03-22T06:35:03.062Z,99053.41
2023-03-22T06:37:31.230Z,99054.06
2023-03-22T06:39:59.394Z,99059.94
2023-03-22T06:42:31.196Z,99058.66
2023-03-22T06:44:59.750Z,99068.66
2023-03-22T06:47:28.305Z,99053.25
2023-03-22T06:49:57.001Z,99073.13
2023-03-22T06:52:25.071Z,99066.06
2023-03-22T06:55:11.164Z,99072.13
2023-03-22T06:57:40.642Z,99059.13
2023-03-22T07:00:10.106Z,99061.97
2023-03-22T07:02:38.205Z,99055.69
2023-03-22T07:05:07.278Z,99053.56
2023-03-22T07:07:35.444Z,99039.88
2023-03-22T07:10:10.558Z,99038.03
2023-03-22T07:12:40.056Z,99043.66
2023-03-22T07:15:09.486Z,99049.47
2023-03-22T07:17:37.530Z,99048.31
2023-03-22T07:20:09.416Z,99043.25
2023-03-22T07:22:37.619Z,99045.13
2023-03-22T07:25:06.397Z,99040.00
2023-03-22T07:27:34.482Z,99033.25
2023-03-22T07:30:05.225Z,99039.94
2023-03-22T07:32:33.353Z,99040.25
2023-03-22T07:35:11.878Z,99032.81
2023-03-22T07:37:39.957Z,99032.00
2023-03-22T07:40:09.847Z,99032.34
2023-03-22T07:42:38.070Z,99031.44
2023-03-22T07:45:09.710Z,99029.66
2023-03-22T07:47:43.771Z,99024.44
2023-03-22T07:50:13.403Z,99022.44
2023-03-22T07:52:42.108Z,99014.53
2023-03-22T07:55:12.704Z,99017.63
2023-03-22T07:57:40.940Z,99003.31
2023-03-22T08:00:12.782Z,99012.72
2023-03-22T08:02:41.066Z,99005.63
2023-03-22T08:05:09.741Z,99009.69
2023-03-22T08:07:37.844Z,99001.50
2023-03-22T08:10:08.942Z,98994.88
2023-03-22T08:12:37.336Z,98991.72
2023-03-22T08:15:06.295Z,98985.88
2023-03-22T08:17:36.205Z,98984.69
2023-03-22T08:20:09.098Z,98989.91
2023-03-22T08:22:38.344Z,98989.09
2023-03-22T08:25:11.897Z,98992.78
2023-03-22T08:27:39.982Z,98980.59
2023-03-22T08:30:09.904Z,98982.63
2023-03-22T08:32:39.410Z,98978.75
2023-03-22T08:35:10.850Z,98986.72
2023-03-22T08:37:39.668Z,98984.44
2023-03-22T08:40:10.586Z,98983.84
2023-03-22T08:42:39.565Z,98983.25
2023-03-22T08:45:10.364Z,98983.16
2023-03-22T08:47:39.910Z,98988.59
2023-03-22T08:50:09.628Z,98978.06
2023-03-22T08:52:37.755Z,98981.28
2023-03-22T08:55:08.464Z,98983.28
2023-03-22T08:57:38.777Z,98982.72
2023-03-22T09:00:10.985Z,98980.28
2023-03-22T09:02:41.000Z,98975.88
2023-03-22T09:05:09.838Z,98979.66
2023-03-22T09:07:37.945Z,98963.00
2023-03-22T09:10:06.947Z,98970.88
2023-03-22T09:12:35.073Z,98969.94
2023-03-22T09:15:12.446Z,98971.59
2023-03-22T09:17:42.204Z,98958.75
2023-03-22T09:20:15.918Z,98971.09
2023-03-22T09:22:44.197Z,98967.50
2023-03-22T09:25:13.267Z,98965.25
2023-03-22T09:27:41.536Z,98964.19
2023-03-22T09:30:11.389Z,98955.88
2023-03-22T09:32:42.339Z,98960.50
2023-03-22T09:35:13.003Z,98941.56
2023-03-22T09:37:41.072Z,98935.97
2023-03-22T09:40:10.587Z,98938.78
2023-03-22T09:42:43.558Z,98932.91
2023-03-22T09:45:18.043Z,98935.09
2023-03-22T09:47:52.198Z,98925.50
2023-03-22T09:50:24.272Z,98915.28
2023-03-22T09:52:56.654Z,98923.09
2023-03-22T09:55:37.381Z,98920.41
2023-03-22T09:58:13.264Z,98922.66
2023-03-22T10:00:46.345Z,98929.91
2023-03-22T10:03:26.536Z,98920.53
2023-03-22T10:06:04.309Z,98925.13
2023-03-22T10:08:43.997Z,98925.34
2023-03-22T10:11:19.639Z,98924.97
2023-03-22T10:13:57.419Z,98925.91
2023-03-22T10:16:29.540Z,98924.75
2023-03-22T10:19:06.476Z,98925.47
2023-03-22T10:21:37.278Z,98923.75
2023-03-22T10:24:14.221Z,98917.09
2023-03-22T10:26:46.381Z,98910.78
2023-03-22T10:29:22.658Z,98906.13
2023-03-22T10:31:50.810Z,98896.31
2023-03-22T10:34:22.990Z,98899.66
2023-03-22T10:36:54.314Z,98889.63
2023-03-22T10:39:35.758Z,98890.28
2023-03-22T10:42:09.883Z,98886.44
2023-03-22T10:44:48.126Z,98880.38
2023-03-22T10:47:18.383Z,98872.09
2023-03-22T10:49:53.127Z,98877.59
2023-03-22T10:52:37.939Z,98876.06
2023-03-22T10:55:10.572Z,98880.38
2023-03-22T10:57:39.992Z,98866.13
2023-03-22T11:00:12.011Z,98872.84
2023-03-22T11:02:48.410Z,98870.91
2023-03-22T11:05:27.105Z,98875.41
2023-03-22T11:07:58.898Z,98875.38
2023-03-22T11:10:32.732Z,98876.69
2023-03-22T11:13:15.502Z,98873.22
2023-03-22T11:15:52.939Z,98875.38
2023-03-22T11:18:45.817Z,98871.84
2023-03-22T11:21:17.798Z,98866.44
2023-03-22T11:23:55.095Z,98871.50
2023-03-22T11:26:34.765Z,98861.75
2023-03-22T11:29:15.789Z,98865.81
2023-03-22T11:32:02.245Z,98855.69
2023-03-22T11:34:36.798Z,98846.63
2023-03-22T11:37:13.364Z,98844.25
2023-03-22T11:39:50.079Z,98839.72
2023-03-22T11:42:22.235Z,98836.25
2023-03-22T11:44:51.465Z,98829.81
2023-03-22T11:47:19.781Z,98833.63
2023-03-22T11:49:51.581Z,98820.19
2023-03-22T11:52:24.188Z,98810.00
2023-03-22T11:54:55.552Z,98820.22
2023-03-22T11:57:26.985Z,98821.81
2023-03-22T12:00:01.861Z,98811.31
2023-03-22T12:02:36.957Z,98818.06
2023-03-22T12:05:09.488Z,98804.06
2023-03-22T12:07:39.428Z,98801.63
2023-03-22T12:10:17.090Z,98805.13
2023-03-22T12:12:50.848Z,98797.06
2023-03-22T12:15:23.971Z,98798.09
2023-03-22T12:17:57.676Z,98801.59
2023-03-22T12:20:37.743Z,98798.59
2023-03-22T12:23:14.341Z,98798.59
2023-03-22T12:25:51.786Z,98793.16
2023-03-22T12:28:24.324Z,98789.09
2023-03-22T12:30:56.279Z,98779.41
2023-03-22T12:33:28.461Z,98775.13
2023-03-22T12:35:59.804Z,98768.94
2023-03-22T12:38:51.165Z,98767.03
2023-03-22T12:41:28.306Z,98765.38
2023-03-22T12:44:00.623Z,98771.78
2023-03-22T12:46:36.882Z,98764.72
2023-03-22T12:49:13.156Z,98760.66
2023-03-22T12:51:43.345Z,98764.63
2023-03-22T12:54:15.381Z,98768.03
2023-03-22T12:56:47.773Z,98748.13
2023-03-22T12:59:19.642Z,98764.91
2023-03-22T13:01:52.848Z,98754.38
2023-03-22T13:04:52.737Z,98759.16
2023-03-22T13:07:41.208Z,98750.75
2023-03-22T13:10:58.570Z,98756.84
2023-03-22T13:13:44.921Z,98755.47
2023-03-22T13:16:43.367Z,98741.44
2023-03-22T13:19:31.589Z,98742.47
2023-03-22T13:22:21.438Z,98745.91
2023-03-22T13:28:05.347Z,98747.06
2023-03-22T13:30:37.848Z,98736.63
2023-03-22T13:33:16.093Z,98745.25
2023-03-22T13:35:48.745Z,98741.97
2023-03-22T13:38:21.967Z,98735.00
2023-03-22T13:40:59.359Z,98730.13
2023-03-22T13:43:35.673Z,98728.19
2023-03-22T13:46:15.722Z,98722.69
2023-03-22T13:48:55.265Z,98729.66
2023-03-22T13:51:32.177Z,98714.31
2023-03-22T13:54:06.470Z,98712.38
2023-03-22T13:56:54.317Z,98714.16
2023-03-22T13:59:27.461Z,98717.00
2023-03-22T14:02:00.800Z,98706.19
2023-03-22T14:04:44.486Z,98705.09
2023-03-22T14:07:24.256Z,98700.50
2023-03-22T14:09:55.790Z,98702.25
2023-03-22T14:12:35.664Z,98698.19
2023-03-22T14:15:08.257Z,98685.78
2023-03-22T14:17:43.326Z,98688.66
2023-03-22T14:20:15.612Z,98681.88
